Time;durP1;ratioP1;P1;durP2;ratioP2;P2;SDS_P1;SDS_P2;PMS_P1;PMS_P2;Temp;Humidity;BMP_temperature;BMP_pressure;BME280_temperature;BME280_humidity;BME280_pressure;Samples;Min_cycle;Max_cycle;Signal;HPM_P1;HPM_P2
2022/12/15 00:40:10;;;;;;;;;;;;;;;7.18;88.77;99211.00;5044734;28;19928;-69
2022/12/15 00:42:35;;;;;;;;;;;;;;;7.28;89.26;99209.09;5044925;28;19925;-70
2022/12/15 00:45:00;;;;;;;;;;;;;;;7.28;88.69;99204.69;5046513;28;19956;-75
2022/12/15 00:47:26;;;;;;;;;;;;;;;7.34;88.41;99196.19;5046036;28;19960;-74
2022/12/15 01:20:14;;;;;;;;;;;;;;;7.07;89.42;99174.41;5046218;28;19955;-75
2022/12/15 01:22:39;;;;;;;;;;;;;;;7.20;88.33;99144.06;5045724;28;19921;-75
2022/12/15 01:25:05;;;;;;;;;;;;;;;7.08;88.65;99162.88;5044809;28;20154;-69
2022/12/15 01:27:31;;;;;;;;;;;;;;;7.15;89.08;99162.13;5042356;28;19917;-69
2022/12/15 01:29:56;;;;;;;;;;;;;;;7.12;89.69;99164.22;5042660;28;19924;-75
2022/12/15 01:32:21;;;;;;;;;;;;;;;7.39;89.09;99150.94;5043542;28;19921;-70
2022/12/15 01:34:47;;;;;;;;;;;;;;;7.36;89.07;99169.69;5045689;28;19917;-75
2022/12/15 01:37:12;;;;;;;;;;;;;;;7.13;90.94;99187.78;5045709;28;19952;-69
2022/12/15 01:42:41;;;;;;;;;;;;;;;7.20;91.51;99188.00;5027776;28;20151;-69
2022/12/15 01:45:21;;;;;;;;;;;;;;;7.25;90.71;99180.44;5023510;28;19925;-75
2022/12/15 01:47:47;;;;;;;;;;;;;;;7.15;90.44;99138.44;5034351;28;19948;-69
2022/12/15 01:50:13;;;;;;;;;;;;;;;7.42;90.17;99163.81;5044233;28;19943;-74
2022/12/15 01:52:38;;;;;;;;;;;;;;;7.36;90.56;99165.25;5044027;28;19917;-70
2022/12/15 01:55:04;;;;;;;;;;;;;;;7.35;90.08;99179.41;5044799;28;20268;-75
2022/12/15 01:57:30;;;;;;;;;;;;;;;7.39;90.06;99187.00;5042271;28;19924;-75
2022/12/15 01:59:58;;;;;;;;;;;;;;;7.40;90.23;99178.09;5042181;28;20217;-75
2022/12/15 02:02:25;;;;;;;;;;;;;;;7.40;90.15;99170.22;5044864;28;19921;-71
2022/12/15 02:04:51;;;;;;;;;;;;;;;7.39;90.56;99181.72;5044263;28;20095;-70
2022/12/15 02:07:17;;;;;;;;;;;;;;;7.21;90.84;99192.28;5043776;28;19921;-75
2022/12/15 02:09:43;;;;;;;;;;;;;;;6.99;92.08;99194.41;5044468;28;20135;-74
2022/12/15 02:12:11;;;;;;;;;;;;;;;6.94;92.41;99209.00;5043821;28;19985;-69
2022/12/15 02:14:45;;;;;;;;;;;;;;;6.95;92.96;99195.69;5043997;28;19917;-75
2022/12/15 02:17:24;;;;;;;;;;;;;;;6.74;94.42;99221.50;5044098;28;19936;-70
2022/12/15 02:20:05;;;;;;;;;;;;;;;6.72;94.28;99233.97;5043746;28;19921;-69
2022/12/15 02:22:49;;;;;;;;;;;;;;;6.66;94.26;99234.59;5044439;28;19921;-75
2022/12/15 02:25:32;;;;;;;;;;;;;;;6.70;93.88;99228.88;5041647;28;19978;-74
2022/12/15 02:28:00;;;;;;;;;;;;;;;6.65;94.35;99222.41;5042626;28;19929;-69
2022/12/15 02:30:26;;;;;;;;;;;;;;;6.56;93.25;99216.25;5042014;28;19991;-75
2022/12/15 02:32:59;;;;;;;;;;;;;;;6.52;94.42;99232.47;5042394;28;19932;-75
2022/12/15 02:35:29;;;;;;;;;;;;;;;6.33;94.78;99251.81;5043523;28;19928;-69
2022/12/15 02:37:54;;;;;;;;;;;;;;;6.40;92.81;99237.09;5043305;28;19979;-70
2022/12/15 02:40:20;;;;;;;;;;;;;;;6.36;93.00;99223.44;5044240;28;19956;-74
2022/12/15 02:42:49;;;;;;;;;;;;;;;6.40;92.25;99227.41;5044390;28;19929;-75
2022/12/15 02:45:18;;;;;;;;;;;;;;;6.26;92.85;99234.97;5043952;28;20100;-75
2022/12/15 02:47:44;;;;;;;;;;;;;;;6.34;92.27;99242.97;5043051;28;20092;-75
2022/12/15 02:50:28;;;;;;;;;;;;;;;6.18;92.46;99261.16;5043206;28;20035;-74
2022/12/15 02:52:54;;;;;;;;;;;;;;;6.00;92.83;99275.06;5047503;28;19924;-69
2022/12/15 02:55:22;;;;;;;;;;;;;;;6.09;93.90;99262.84;5060691;28;20234;-69
2022/12/15 02:58:00;;;;;;;;;;;;;;;6.15;92.94;99248.28;5047189;28;19971;-73
2022/12/15 03:00:27;;;;;;;;;;;;;;;6.22;93.01;99230.97;5046468;28;19937;-75
2022/12/15 03:02:54;;;;;;;;;;;;;;;6.26;91.84;99237.59;5048098;28;19940;-69
2022/12/15 03:05:20;;;;;;;;;;;;;;;6.17;92.16;99238.47;5046789;28;20282;-75
2022/12/15 03:07:47;;;;;;;;;;;;;;;6.32;91.08;99243.09;5046866;28;20089;-69
2022/12/15 03:10:13;;;;;;;;;;;;;;;6.30;92.49;99231.09;5047677;28;19921;-72
2022/12/15 03:12:39;;;;;;;;;;;;;;;6.59;90.65;99238.78;5048453;28;19944;-69
2022/12/15 03:15:05;;;;;;;;;;;;;;;6.43;90.96;99242.06;5047645;28;19925;-72
2022/12/15 03:17:30;;;;;;;;;;;;;;;6.48;91.48;99242.47;5047764;28;19971;-75
2022/12/15 03:19:56;;;;;;;;;;;;;;;6.53;90.33;99245.47;5046942;28;19917;-70
2022/12/15 03:22:21;;;;;;;;;;;;;;;6.48;90.51;99239.00;5047254;28;19928;-69
2022/12/15 03:24:47;;;;;;;;;;;;;;;6.55;90.20;99226.91;5047652;28;19960;-69
2022/12/15 03:27:12;;;;;;;;;;;;;;;6.38;90.69;99223.28;5047797;28;19996;-69
2022/12/15 03:29:37;;;;;;;;;;;;;;;6.25;90.30;99233.31;5048430;28;19932;-70
2022/12/15 03:32:03;;;;;;;;;;;;;;;6.28;90.43;99231.22;5048544;28;20229;-75
2022/12/15 03:34:28;;;;;;;;;;;;;;;6.30;90.61;99228.44;5048214;28;20134;-69
2022/12/15 03:36:53;;;;;;;;;;;;;;;6.13;90.56;99223.94;5047548;28;19925;-75
2022/12/15 03:39:18;;;;;;;;;;;;;;;6.11;91.21;99221.47;5045935;28;19917;-75
2022/12/15 03:41:44;;;;;;;;;;;;;;;6.38;90.83;99226.75;5046702;28;19928;-75
2022/12/15 03:44:09;;;;;;;;;;;;;;;6.17;90.78;99228.78;5047310;28;19924;-75
2022/12/15 03:46:34;;;;;;;;;;;;;;;6.19;91.30;99221.56;5046695;28;19920;-69
2022/12/15 03:49:00;;;;;;;;;;;;;;;6.05;91.68;99225.50;5047354;28;19925;-70
2022/12/15 03:51:25;;;;;;;;;;;;;;;6.11;91.28;99221.47;5047089;28;19967;-75
2022/12/15 03:53:50;;;;;;;;;;;;;;;6.18;91.85;99217.28;5044620;28;19917;-69
2022/12/15 03:56:16;;;;;;;;;;;;;;;6.34;90.91;99217.50;5044311;28;20107;-69
2022/12/15 03:58:41;;;;;;;;;;;;;;;6.20;91.29;99210.06;5045816;28;19999;-75
2022/12/15 04:01:11;;;;;;;;;;;;;;;6.08;92.44;99216.50;5044719;28;19987;-70
2022/12/15 04:03:36;;;;;;;;;;;;;;;6.29;91.36;99206.59;5044709;28;19919;-69
2022/12/15 04:06:01;;;;;;;;;;;;;;;6.27;90.74;99226.94;5046065;28;20100;-75
2022/12/15 04:08:26;;;;;;;;;;;;;;;6.21;91.41;99224.03;5046385;28;20014;-69
2022/12/15 04:10:52;;;;;;;;;;;;;;;6.04;91.66;99210.72;5046572;28;19943;-69
2022/12/15 04:13:17;;;;;;;;;;;;;;;6.18;91.50;99211.19;5046380;28;19917;-75
2022/12/15 04:15:42;;;;;;;;;;;;;;;6.04;91.73;99215.97;5045056;28;19975;-75
2022/12/15 04:18:09;;;;;;;;;;;;;;;5.85;91.84;99212.56;5046181;28;19917;-75
2022/12/15 04:20:34;;;;;;;;;;;;;;;5.96;92.45;99200.09;5045901;28;19929;-75
2022/12/15 04:22:59;;;;;;;;;;;;;;;5.92;91.73;99196.13;5045467;28;20097;-70
2022/12/15 05:34:06;;;;;;;;;;;;;;;6.84;91.14;99253.84;5044774;28;19950;-75
2022/12/15 05:36:31;;;;;;;;;;;;;;;6.86;91.12;99272.09;5044100;28;19952;-69
2022/12/15 05:38:56;;;;;;;;;;;;;;;6.84;90.60;99261.72;5044595;28;19955;-70
2022/12/15 05:41:22;;;;;;;;;;;;;;;6.76;91.54;99268.72;5044858;28;20102;-70
2022/12/15 05:43:47;;;;;;;;;;;;;;;7.02;89.85;99269.63;5044689;28;19928;-75
2022/12/15 05:46:13;;;;;;;;;;;;;;;6.59;91.67;99271.19;5043983;28;20102;-75
2022/12/15 05:48:39;;;;;;;;;;;;;;;6.57;92.17;99290.72;5044039;28;19929;-70
2022/12/15 05:51:06;;;;;;;;;;;;;;;6.47;93.79;99282.88;5043273;28;19917;-73
2022/12/15 05:53:31;;;;;;;;;;;;;;;6.32;93.80;99289.59;5042616;28;19921;-69
2022/12/15 05:56:01;;;;;;;;;;;;;;;6.32;94.90;99289.59;5045117;28;19935;-70
2022/12/15 05:58:26;;;;;;;;;;;;;;;6.60;94.18;99283.34;5045644;28;19946;-75
2022/12/15 06:00:51;;;;;;;;;;;;;;;6.51;93.40;99286.03;5045071;28;19963;-75
2022/12/15 06:03:16;;;;;;;;;;;;;;;6.50;94.30;99279.97;5044425;28;19921;-75
2022/12/15 06:05:42;;;;;;;;;;;;;;;6.82;93.48;99312.84;5043297;28;19955;-69
2022/12/15 06:08:07;;;;;;;;;;;;;;;6.70;92.91;99314.88;5044951;28;20147;-75
2022/12/15 06:10:32;;;;;;;;;;;;;;;6.50;94.35;99315.94;5043505;28;19917;-70
2022/12/15 06:12:58;;;;;;;;;;;;;;;6.67;93.33;99309.91;5044050;28;19921;-70
2022/12/15 06:15:23;;;;;;;;;;;;;;;6.66;92.81;99308.25;5042457;28;19928;-70
2022/12/15 06:17:48;;;;;;;;;;;;;;;6.59;92.92;99304.56;5044594;28;19917;-75
2022/12/15 06:20:13;;;;;;;;;;;;;;;6.92;91.38;99303.09;5044333;28;19992;-69
2022/12/15 06:22:39;;;;;;;;;;;;;;;6.71;92.55;99308.63;5044991;28;19921;-70
2022/12/15 06:25:04;;;;;;;;;;;;;;;6.71;93.62;99312.09;5056519;28;19917;-75
2022/12/15 06:27:30;;;;;;;;;;;;;;;6.72;92.54;99319.00;5042984;28;19928;-70
2022/12/15 06:29:55;;;;;;;;;;;;;;;6.59;93.72;99330.84;5040596;28;19921;-69
2022/12/15 06:32:20;;;;;;;;;;;;;;;6.57;93.92;99330.19;5044894;28;19932;-74
2022/12/15 06:34:46;;;;;;;;;;;;;;;6.69;93.07;99329.81;5043493;28;20089;-75
2022/12/15 06:37:11;;;;;;;;;;;;;;;6.65;92.18;99332.91;5043256;28;19980;-69
2022/12/15 06:39:37;;;;;;;;;;;;;;;6.49;92.62;99336.16;5041832;28;19921;-69
2022/12/15 06:42:02;;;;;;;;;;;;;;;6.68;92.86;99332.59;5059374;28;19916;-75
2022/12/15 06:44:27;;;;;;;;;;;;;;;6.54;92.87;99330.47;5042922;28;19921;-74
2022/12/15 06:46:52;;;;;;;;;;;;;;;6.59;92.73;99325.59;5041387;28;19942;-75
2022/12/15 06:49:18;;;;;;;;;;;;;;;6.46;93.14;99330.38;5043672;28;19928;-69
2022/12/15 06:51:43;;;;;;;;;;;;;;;6.59;92.93;99344.84;5041467;28;19913;-70
2022/12/15 06:54:09;;;;;;;;;;;;;;;6.82;93.20;99342.63;5039681;28;19950;-75
2022/12/15 06:56:35;;;;;;;;;;;;;;;6.89;92.48;99343.69;5043541;28;19955;-75
2022/12/15 06:59:02;;;;;;;;;;;;;;;6.79;93.13;99335.03;5044170;28;19961;-70
2022/12/15 07:01:27;;;;;;;;;;;;;;;7.07;91.91;99340.25;5044061;28;19925;-75
2022/12/15 07:03:53;;;;;;;;;;;;;;;7.02;91.41;99341.53;5044284;28;19944;-70
2022/12/15 07:06:18;;;;;;;;;;;;;;;7.15;91.20;99353.50;5043472;28;19917;-69
2022/12/15 07:08:47;;;;;;;;;;;;;;;7.10;91.63;99350.50;5042711;28;19959;-69
2022/12/15 07:11:12;;;;;;;;;;;;;;;6.72;93.04;99340.06;5044682;28;20170;-69
2022/12/15 07:13:38;;;;;;;;;;;;;;;6.77;93.39;99330.91;5042877;28;19936;-74
2022/12/15 07:16:04;;;;;;;;;;;;;;;6.95;92.51;99342.28;5043863;28;19925;-75
2022/12/15 07:18:30;;;;;;;;;;;;;;;7.09;93.15;99330.41;5044069;28;19988;-70
2022/12/15 07:20:56;;;;;;;;;;;;;;;7.20;92.28;99331.00;5043369;28;19917;-75
2022/12/15 07:23:21;;;;;;;;;;;;;;;7.11;92.45;99362.66;5043872;28;19955;-69
2022/12/15 07:25:46;;;;;;;;;;;;;;;7.01;93.20;99376.72;5046541;28;19925;-69
2022/12/15 07:28:12;;;;;;;;;;;;;;;6.83;93.39;99372.41;5042923;28;20211;-74
2022/12/15 07:30:37;;;;;;;;;;;;;;;7.19;93.94;99381.19;5043326;28;19917;-70
2022/12/15 07:33:03;;;;;;;;;;;;;;;6.93;94.58;99381.06;5043778;28;19960;-74
2022/12/15 07:35:29;;;;;;;;;;;;;;;6.89;94.45;99392.88;5042716;28;19917;-75
2022/12/15 07:37:54;;;;;;;;;;;;;;;7.20;94.75;99385.47;5046791;28;19940;-74
2022/12/15 07:40:19;;;;;;;;;;;;;;;7.39;93.72;99380.09;5044503;28;20215;-69
2022/12/15 07:42:45;;;;;;;;;;;;;;;7.44;92.45;99388.38;5045345;28;19920;-75
2022/12/15 07:45:10;;;;;;;;;;;;;;;7.20;93.11;99388.09;5046193;28;19924;-70
2022/12/15 07:47:36;;;;;;;;;;;;;;;7.20;94.94;99380.22;5047358;28;19921;-75
2022/12/15 07:50:02;;;;;;;;;;;;;;;7.16;93.84;99387.56;5048272;28;19921;-70
2022/12/15 07:52:27;;;;;;;;;;;;;;;7.53;94.18;99390.09;5062418;28;19917;-75
2022/12/15 07:54:52;;;;;;;;;;;;;;;7.86;92.09;99393.00;5048135;28;19928;-68
2022/12/15 07:57:18;;;;;;;;;;;;;;;7.81;92.70;99388.19;5047754;28;19955;-73
2022/12/15 07:59:43;;;;;;;;;;;;;;;8.15;92.75;99385.63;5047129;28;20206;-68
2022/12/15 08:02:09;;;;;;;;;;;;;;;8.37;91.25;99384.34;5046742;28;19924;-73
2022/12/15 08:04:34;;;;;;;;;;;;;;;8.45;90.79;99384.38;5046357;28;20217;-72
2022/12/15 08:06:59;;;;;;;;;;;;;;;8.68;89.82;99399.66;5047497;28;19924;-73
2022/12/15 08:09:25;;;;;;;;;;;;;;;8.98;89.46;99385.09;5045734;28;19929;-73
2022/12/15 08:11:50;;;;;;;;;;;;;;;9.10;89.00;99387.25;5046990;28;19924;-68
2022/12/15 08:14:16;;;;;;;;;;;;;;;8.66;89.80;99385.78;5047016;28;20227;-68
2022/12/15 08:16:41;;;;;;;;;;;;;;;8.87;90.46;99394.13;5046116;28;20265;-68
2022/12/15 08:19:09;;;;;;;;;;;;;;;9.10;88.93;99389.09;5046448;28;19960;-73
2022/12/15 08:21:34;;;;;;;;;;;;;;;9.13;89.11;99394.88;5071173;28;19951;-68
2022/12/15 08:24:00;;;;;;;;;;;;;;;9.20;88.78;99398.50;5080622;28;19928;-68
2022/12/15 08:26:25;;;;;;;;;;;;;;;9.21;87.94;99396.69;5085033;28;19920;-68
2022/12/15 08:28:51;;;;;;;;;;;;;;;8.95;89.09;99404.72;5085232;28;20101;-68
2022/12/15 08:31:18;;;;;;;;;;;;;;;8.86;90.06;99400.41;5084825;28;19913;-68
2022/12/15 08:33:44;;;;;;;;;;;;;;;9.00;88.79;99397.13;5085312;28;19965;-73
2022/12/15 08:36:10;;;;;;;;;;;;;;;8.78;89.75;99408.28;5084646;28;19951;-68
2022/12/15 08:38:37;;;;;;;;;;;;;;;9.03;89.77;99399.47;5085252;28;19943;-68
2022/12/15 08:41:13;;;;;;;;;;;;;;;9.14;90.49;99399.16;5084828;28;19919;-73
2022/12/15 08:43:38;;;;;;;;;;;;;;;8.89;91.41;99403.53;5084774;28;19920;-73
2022/12/15 08:46:04;;;;;;;;;;;;;;;9.06;90.42;99398.31;5084663;28;19923;-73
2022/12/15 08:48:30;;;;;;;;;;;;;;;9.24;89.79;99399.03;5084314;28;19947;-73
2022/12/15 08:50:56;;;;;;;;;;;;;;;9.10;90.68;99403.13;5084557;28;19917;-68
2022/12/15 08:53:21;;;;;;;;;;;;;;;9.37;90.45;99404.69;5084381;28;19917;-68
2022/12/15 08:55:46;;;;;;;;;;;;;;;9.41;89.21;99405.19;5084400;28;19962;-68
2022/12/15 08:58:12;;;;;;;;;;;;;;;9.58;88.89;99401.56;5084449;28;19955;-68
2022/12/15 09:00:37;;;;;;;;;;;;;;;9.55;88.47;99405.38;5084177;28;20121;-68
2022/12/15 09:03:02;;;;;;;;;;;;;;;9.49;89.21;99395.47;5084411;28;19912;-73
2022/12/15 09:05:27;;;;;;;;;;;;;;;9.66;89.02;99401.59;5083502;28;19944;-73
2022/12/15 09:07:54;;;;;;;;;;;;;;;9.87;89.37;99388.69;5084211;28;19980;-72
2022/12/15 09:10:19;;;;;;;;;;;;;;;9.85;87.55;99395.13;5082452;28;19923;-73
2022/12/15 09:12:45;;;;;;;;;;;;;;;9.81;87.47;99402.56;5083919;28;19913;-68
2022/12/15 09:15:10;;;;;;;;;;;;;;;9.74;87.46;99401.59;5064123;28;20004;-73
2022/12/15 09:17:36;;;;;;;;;;;;;;;10.15;85.89;99391.81;5062949;28;19962;-68
2022/12/15 09:20:02;;;;;;;;;;;;;;;10.26;86.59;99388.00;5059509;28;19960;-71
2022/12/15 09:22:27;;;;;;;;;;;;;;;10.19;86.51;99392.28;5060140;28;19948;-68
2022/12/15 09:24:53;;;;;;;;;;;;;;;10.41;85.94;99388.19;5063615;28;19920;-68
2022/12/15 09:27:18;;;;;;;;;;;;;;;10.55;85.25;99401.53;5061125;28;20266;-68
2022/12/15 09:29:43;;;;;;;;;;;;;;;10.48;85.27;99397.91;5060550;28;20051;-68
2022/12/15 09:32:08;;;;;;;;;;;;;;;10.27;85.18;99396.78;5062094;28;19924;-68
2022/12/15 09:34:34;;;;;;;;;;;;;;;10.25;85.18;99402.25;5063114;28;20230;-69
2022/12/15 09:36:59;;;;;;;;;;;;;;;10.27;85.41;99389.66;5060374;28;19966;-69
2022/12/15 09:39:24;;;;;;;;;;;;;;;10.26;86.25;99382.72;5061787;28;20220;-68
2022/12/15 09:41:54;;;;;;;;;;;;;;;10.33;85.07;99377.56;5060233;28;20142;-73
2022/12/15 09:44:20;;;;;;;;;;;;;;;10.33;85.55;99388.16;5060648;28;19921;-68
2022/12/15 09:46:48;;;;;;;;;;;;;;;10.15;87.13;99386.50;5061621;28;20092;-73
2022/12/15 09:49:19;;;;;;;;;;;;;;;10.51;86.18;99394.09;5060320;28;20147;-68
2022/12/15 09:51:56;;;;;;;;;;;;;;;10.49;85.79;99396.91;5059825;28;19917;-68
2022/12/15 09:54:23;;;;;;;;;;;;;;;10.57;84.98;99401.38;5061321;28;19920;-73
2022/12/15 09:56:52;;;;;;;;;;;;;;;10.55;85.31;99393.59;5060146;28;20760;-73
2022/12/15 09:59:49;;;;;;;;;;;;;;;10.48;85.33;99405.03;5054964;28;19921;-68
2022/12/15 10:02:15;;;;;;;;;;;;;;;10.78;85.73;99411.38;5045423;28;20200;-68
2022/12/15 10:04:54;;;;;;;;;;;;;;;10.48;85.89;99403.22;5060246;28;19933;-68
2022/12/15 10:07:26;;;;;;;;;;;;;;;10.70;84.69;99401.66;5061158;28;20316;-73
2022/12/15 10:09:51;;;;;;;;;;;;;;;10.65;84.60;99400.50;5061452;28;19920;-73
2022/12/15 10:12:21;;;;;;;;;;;;;;;10.62;84.64;99406.97;5062188;28;19970;-68
2022/12/15 10:14:52;;;;;;;;;;;;;;;10.79;84.08;99394.50;5062023;28;19928;-74
2022/12/15 10:17:17;;;;;;;;;;;;;;;10.87;83.34;99413.00;5061493;28;19924;-73
2022/12/15 10:19:58;;;;;;;;;;;;;;;11.07;84.40;99408.13;5062317;28;19920;-73
2022/12/15 10:22:25;;;;;;;;;;;;;;;10.98;83.60;99404.69;5062190;28;19921;-73
2022/12/15 10:24:50;;;;;;;;;;;;;;;10.94;82.94;99403.38;5061921;28;20187;-73
2022/12/15 10:27:26;;;;;;;;;;;;;;;11.00;83.60;99393.91;5062042;28;19980;-73
2022/12/15 10:30:02;;;;;;;;;;;;;;;11.23;82.15;99397.41;5062448;28;20087;-68
2022/12/15 10:32:33;;;;;;;;;;;;;;;11.23;82.07;99396.59;5061004;28;20385;-68
2022/12/15 10:34:58;;;;;;;;;;;;;;;11.25;81.66;99392.78;5061360;28;19927;-68
2022/12/15 10:37:23;;;;;;;;;;;;;;;11.15;82.20;99381.56;5061934;28;19917;-73
2022/12/15 10:39:49;;;;;;;;;;;;;;;11.14;81.59;99378.09;5061639;28;19928;-68
2022/12/15 10:42:17;;;;;;;;;;;;;;;10.70;81.93;99383.13;5061979;28;20712;-73
2022/12/15 10:44:43;;;;;;;;;;;;;;;11.01;83.22;99385.78;5060586;28;19955;-73
2022/12/15 10:47:10;;;;;;;;;;;;;;;10.85;83.53;99380.56;5061500;28;19955;-73
2022/12/15 10:49:36;;;;;;;;;;;;;;;11.20;81.00;99388.00;5062150;28;19921;-68
2022/12/15 10:52:01;;;;;;;;;;;;;;;11.43;79.45;99387.19;5061499;28;19916;-71
2022/12/15 10:54:42;;;;;;;;;;;;;;;11.36;81.51;99394.19;5061667;28;19959;-73
2022/12/15 10:57:20;;;;;;;;;;;;;;;11.48;81.05;99392.81;5061721;28;19931;-73
2022/12/15 10:59:46;;;;;;;;;;;;;;;11.42;80.80;99391.66;5062109;28;19996;-68
2022/12/15 11:02:17;;;;;;;;;;;;;;;11.57;80.31;99410.31;5061363;28;19916;-69
2022/12/15 11:04:53;;;;;;;;;;;;;;;11.72;78.83;99408.56;5062026;28;19984;-73
2022/12/15 11:07:18;;;;;;;;;;;;;;;11.57;80.44;99405.03;5061058;28;19932;-68
2022/12/15 11:09:45;;;;;;;;;;;;;;;11.24;81.38;99400.91;5058096;28;19925;-73
2022/12/15 11:15:00;;;;;;;;;;;;;;;11.41;81.18;99407.75;5065696;28;19927;-73
2022/12/15 11:17:35;;;;;;;;;;;;;;;11.52;81.92;99415.34;5064017;28;20205;-73
2022/12/15 11:20:05;;;;;;;;;;;;;;;11.65;81.21;99409.44;5065352;28;19933;-68
2022/12/15 11:22:43;;;;;;;;;;;;;;;11.63;81.18;99408.78;5065354;28;19963;-68
2022/12/15 11:25:08;;;;;;;;;;;;;;;11.54;81.66;99415.97;5062534;28;20149;-70
2022/12/15 11:27:39;;;;;;;;;;;;;;;11.74;81.15;99411.03;5064819;28;19948;-68
2022/12/15 11:30:13;;;;;;;;;;;;;;;11.78;81.36;99421.13;5065000;28;19921;-73
2022/12/15 11:32:40;;;;;;;;;;;;;;;11.79;80.65;99422.78;5064856;28;19947;-68
2022/12/15 11:35:11;;;;;;;;;;;;;;;11.85;80.33;99418.59;5064832;28;19924;-68
2022/12/15 11:37:38;;;;;;;;;;;;;;;11.58;82.50;99411.97;5064944;28;19947;-68
2022/12/15 11:40:22;;;;;;;;;;;;;;;11.69;81.17;99416.03;5064881;28;19952;-71
2022/12/15 11:42:56;;;;;;;;;;;;;;;11.94;80.68;99409.56;5064689;28;19943;-72
2022/12/15 11:45:24;;;;;;;;;;;;;;;11.82;80.29;99411.00;5064977;28;19983;-73
2022/12/15 11:48:02;;;;;;;;;;;;;;;11.72;81.20;99410.38;5064495;28;20207;-73
2022/12/15 11:50:37;;;;;;;;;;;;;;;11.91;79.34;99411.75;5063209;28;19951;-72
2022/12/15 11:53:08;;;;;;;;;;;;;;;12.09;78.45;99421.03;5064199;28;19928;-68
2022/12/15 11:55:52;;;;;;;;;;;;;;;12.04;78.72;99433.19;5064228;28;19923;-68
2022/12/15 11:58:34;;;;;;;;;;;;;;;11.99;79.84;99428.44;5065233;28;20161;-68
2022/12/15 12:01:18;;;;;;;;;;;;;;;11.97;81.10;99426.97;5064512;28;19917;-73
2022/12/15 12:03:55;;;;;;;;;;;;;;;11.93;79.73;99420.38;5063818;28;19967;-68
2022/12/15 12:06:33;;;;;;;;;;;;;;;12.18;78.42;99419.16;5062175;28;19921;-68
2022/12/15 12:08:58;;;;;;;;;;;;;;;12.09;78.25;99421.03;5062559;28;19921;-73
2022/12/15 12:11:44;;;;;;;;;;;;;;;12.21;78.45;99423.25;5063065;28;19955;-73
2022/12/15 12:14:28;;;;;;;;;;;;;;;12.27;78.74;99422.53;5062815;28;19924;-73
2022/12/15 12:17:02;;;;;;;;;;;;;;;12.35;79.12;99423.28;5062695;28;19948;-68
2022/12/15 12:19:30;;;;;;;;;;;;;;;12.31;79.14;99434.44;5058526;28;20382;-73
2022/12/15 12:22:02;;;;;;;;;;;;;;;12.31;78.78;99435.28;5057534;28;19920;-73
2022/12/15 12:24:46;;;;;;;;;;;;;;;12.30;78.35;99428.31;5056940;28;20005;-73
2022/12/15 12:27:31;;;;;;;;;;;;;;;12.31;78.51;99439.75;5058388;28;20210;-68
2022/12/15 12:30:16;;;;;;;;;;;;;;;12.33;78.68;99435.09;5058453;28;19955;-73
2022/12/15 12:32:47;;;;;;;;;;;;;;;12.02;79.51;99440.53;5054617;28;19924;-73
2022/12/15 12:35:19;;;;;;;;;;;;;;;12.05;79.87;99437.50;5057535;28;19924;-73
2022/12/15 12:38:04;;;;;;;;;;;;;;;12.26;78.65;99436.81;5056551;28;19916;-73
2022/12/15 12:40:36;;;;;;;;;;;;;;;12.12;79.11;99438.44;5057712;28;19928;-73
2022/12/15 12:43:01;;;;;;;;;;;;;;;12.14;80.40;99445.22;5057661;28;19929;-68
2022/12/15 12:45:30;;;;;;;;;;;;;;;12.11;79.57;99445.56;5057812;28;20294;-68
2022/12/15 12:47:58;;;;;;;;;;;;;;;11.99;79.52;99454.97;5059055;28;19917;-74
2022/12/15 12:50:25;;;;;;;;;;;;;;;11.99;79.36;99454.97;5058835;28;19916;-73
2022/12/15 12:52:52;;;;;;;;;;;;;;;12.22;78.88;99454.94;5058546;28;20002;-73
2022/12/15 12:55:53;;;;;;;;;;;;;;;12.24;79.63;99460.91;5058489;28;19917;-73
2022/12/15 12:58:41;;;;;;;;;;;;;;;12.42;78.61;99460.56;5037309;28;19922;-68
2022/12/15 13:01:10;;;;;;;;;;;;;;;12.43;79.65;99472.84;5050091;28;19920;-68
2022/12/15 13:03:38;;;;;;;;;;;;;;;12.45;79.91;99481.44;5058495;28;19955;-73
2022/12/15 13:06:19;;;;;;;;;;;;;;;12.32;80.99;99483.88;5059588;28;20208;-68
2022/12/15 13:08:48;;;;;;;;;;;;;;;12.25;80.38;99489.09;5057243;28;19928;-67
2022/12/15 13:11:33;;;;;;;;;;;;;;;12.32;80.58;99481.22;5058054;28;20092;-72
2022/12/15 13:13:58;;;;;;;;;;;;;;;12.14;81.78;99486.88;5054849;28;19968;-73
2022/12/15 13:16:25;;;;;;;;;;;;;;;12.18;82.25;99497.94;5058434;28;19916;-73
2022/12/15 13:18:55;;;;;;;;;;;;;;;12.10;82.24;99501.50;5074153;28;20214;-73
2022/12/15 13:21:39;;;;;;;;;;;;;;;12.03;83.00;99497.91;5058680;28;19920;-73
2022/12/15 13:24:04;;;;;;;;;;;;;;;12.05;82.24;99501.19;5057726;28;19920;-67
2022/12/15 13:26:30;;;;;;;;;;;;;;;12.05;83.20;99506.50;5059344;28;20231;-73
2022/12/15 13:28:55;;;;;;;;;;;;;;;11.92;82.84;99512.41;5057258;28;19942;-73
2022/12/15 13:31:23;;;;;;;;;;;;;;;11.82;84.48;99515.28;5059244;28;19917;-68
2022/12/15 13:33:49;;;;;;;;;;;;;;;11.80;84.14;99519.94;5057367;28;19967;-68
2022/12/15 13:36:32;;;;;;;;;;;;;;;11.93;83.08;99511.41;5058207;28;20107;-68
2022/12/15 13:38:58;;;;;;;;;;;;;;;11.96;83.15;99512.88;5056360;28;19924;-73
2022/12/15 13:41:23;;;;;;;;;;;;;;;11.78;82.73;99510.50;5058389;28;19931;-73
2022/12/15 13:43:50;;;;;;;;;;;;;;;11.65;83.40;99505.75;5057026;28;19921;-73
2022/12/15 13:46:19;;;;;;;;;;;;;;;11.76;85.73;99515.13;5059177;28;19916;-73
2022/12/15 13:48:46;;;;;;;;;;;;;;;11.73;84.57;99521.59;5056662;28;19976;-67
2022/12/15 13:51:18;;;;;;;;;;;;;;;11.44;86.35;99516.97;5055525;28;20036;-73
2022/12/15 13:53:46;;;;;;;;;;;;;;;11.60;86.01;99523.19;5058334;28;19929;-73
2022/12/15 13:56:24;;;;;;;;;;;;;;;11.68;86.00;99529.25;5057069;28;19923;-73
2022/12/15 13:58:53;;;;;;;;;;;;;;;11.60;86.23;99518.69;5057422;28;19967;-68
2022/12/15 14:01:24;;;;;;;;;;;;;;;11.64;85.44;99530.59;5058380;28;19963;-68
2022/12/15 14:03:57;;;;;;;;;;;;;;;11.59;87.45;99522.34;5057965;28;20006;-69
2022/12/15 14:06:22;;;;;;;;;;;;;;;11.58;86.40;99526.00;5056424;28;19924;-74
2022/12/15 14:08:49;;;;;;;;;;;;;;;11.73;85.64;99532.22;5058853;28;19921;-73
2022/12/15 14:11:21;;;;;;;;;;;;;;;11.61;86.92;99527.47;5057493;28;19920;-68
2022/12/15 14:13:46;;;;;;;;;;;;;;;11.67;87.27;99526.78;5057397;28;19920;-68
2022/12/15 14:16:19;;;;;;;;;;;;;;;11.77;88.24;99533.56;5056991;28;20989;-68
2022/12/15 14:19:01;;;;;;;;;;;;;;;11.63;88.02;99528.13;5057206;28;20210;-74
2022/12/15 14:21:26;;;;;;;;;;;;;;;11.54;89.30;99531.81;5071896;28;19917;-73
2022/12/15 14:23:52;;;;;;;;;;;;;;;11.57;89.88;99537.59;5056724;28;20035;-73
2022/12/15 14:26:17;;;;;;;;;;;;;;;11.57;90.86;99536.78;5055425;28;20282;-68
2022/12/15 14:28:44;;;;;;;;;;;;;;;11.61;90.60;99541.56;5053228;28;19916;-69
2022/12/15 14:31:20;;;;;;;;;;;;;;;11.66;89.89;99543.69;5054942;28;19917;-68
2022/12/15 14:33:46;;;;;;;;;;;;;;;11.74;88.61;99548.97;5055446;28;19928;-73
2022/12/15 14:36:13;;;;;;;;;;;;;;;11.71;88.02;99555.44;5055103;28;19960;-68
2022/12/15 14:38:38;;;;;;;;;;;;;;;11.79;88.54;99557.25;5054920;28;19975;-68
2022/12/15 14:41:05;;;;;;;;;;;;;;;11.61;89.44;99557.47;5053390;28;19931;-68
2022/12/15 14:43:33;;;;;;;;;;;;;;;11.52;88.94;99559.34;5056608;28;19924;-69
2022/12/15 14:46:14;;;;;;;;;;;;;;;11.55;88.55;99560.81;5056727;28;20030;-73
2022/12/15 14:48:43;;;;;;;;;;;;;;;11.58;88.31;99562.31;5060267;28;19950;-68
2022/12/15 14:51:09;;;;;;;;;;;;;;;11.56;87.92;99567.78;5061052;28;19917;-73
2022/12/15 14:53:37;;;;;;;;;;;;;;;11.61;88.34;99568.09;5060809;28;19951;-68
2022/12/15 14:56:20;;;;;;;;;;;;;;;11.64;89.08;99570.38;5058085;28;19917;-68
2022/12/15 14:58:46;;;;;;;;;;;;;;;11.79;87.52;99578.47;5058964;28;19959;-68
2022/12/15 15:01:23;;;;;;;;;;;;;;;11.73;87.98;99585.28;5061673;28;19917;-68
2022/12/15 15:03:58;;;;;;;;;;;;;;;11.75;86.74;99590.41;5060213;28;19984;-68
2022/12/15 15:06:28;;;;;;;;;;;;;;;11.87;87.04;99591.69;5059573;28;19923;-73
2022/12/15 15:08:53;;;;;;;;;;;;;;;11.71;87.55;99589.09;5059821;28;19921;-68
2022/12/15 15:11:21;;;;;;;;;;;;;;;11.62;88.10;99590.13;5058636;28;19928;-68
2022/12/15 15:13:47;;;;;;;;;;;;;;;11.67;87.44;99593.09;5059869;28;19928;-68
2022/12/15 15:16:17;;;;;;;;;;;;;;;11.70;87.29;99598.06;5059017;28;20143;-74
2022/12/15 15:18:43;;;;;;;;;;;;;;;11.74;86.79;99599.34;5059684;28;19921;-68
2022/12/15 15:21:13;;;;;;;;;;;;;;;11.77;86.79;99605.16;5060540;28;19947;-68
2022/12/15 15:23:39;;;;;;;;;;;;;;;11.66;86.45;99610.81;5060135;28;19943;-68